• Join FlightAware (Why Join?)
  • Login
  • US Flag 
07:21PM EDT


 

Airport Tracker/Info


-or-


 

Live Flight TrackerFlight Track Log ✈ N48AZ ✈ 27-Jun-2013 ✈ KPRB - KRHV

Flight Track Log - Related Links

Times and Time Zones

All times are in EDT time to prevent confusion due to time zone crossing. See the N48AZ flight status page for this flight to view local times or setup timezone preferences in your user account.

Time Position Orientation Groundspeed Altitude Reporting Facility
EDT Latitude Longitude Course Direction KTS MPH feet Rate Location/Type
10:51AM 35.6594 -120.6394 71° East 135 155 1,300  Level Oakland Center
10:53AM 35.6672 -120.6117 71° East 144 166 2,700 1,440 Climbing Oakland Center
10:54AM 35.7189 -120.6161 356° North 158 182 4,300 1,380 Climbing Oakland Center
10:55AM 35.7658 -120.6214 355° North 167 192 5,600 1,140 Climbing Oakland Center
10:56AM 35.8128 -120.6272 354° North 168 193 6,700 1,080 Climbing Oakland Center
10:57AM 35.8542 -120.6608 327° Northwest 176 203 7,900 1,080 Climbing Oakland Center
10:58AM 35.9008 -120.6933 331° Northwest 186 214 9,000 1,080 Climbing Oakland Center
10:59AM 35.9467 -120.7278 329° Northwest 192 221 10,200 1,140 Climbing Oakland Center
11:00AM 35.9917 -120.7622 328° Northwest 190 219 11,400 1,020 Climbing Oakland Center
11:01AM 36.0375 -120.7958 329° Northwest 191 220 12,400 1,020 Climbing Oakland Center
11:02AM 36.0842 -120.8308 329° Northwest 194 223 13,500 1,140 Climbing Oakland Center
11:03AM 36.1436 -120.8756 329° Northwest 205 236 14,800 1,140 Climbing Oakland Center
11:04AM 36.1936 -120.9128 329° Northwest 208 239 15,900 480 Climbing Oakland Center
11:05AM 36.2481 -120.9528 329° Northwest 219 252 15,900  Level Oakland Center
11:06AM 36.3083 -121.0000 328° Northwest 242 278 15,900  Level Oakland Center
11:07AM 36.3692 -121.0461 329° Northwest 252 290 15,900  Level Oakland Center
11:08AM 36.4317 -121.0931 329° Northwest 258 297 15,900  Level Oakland Center
11:09AM 36.4947 -121.1400 329° Northwest 261 300 15,900 -60 Level Oakland Center
11:10AM 36.5561 -121.1883 328° Northwest 262 302 15,800 -600 Descending Oakland Center
11:11AM 36.6175 -121.2331 330° Northwest 259 298 14,700 -1,320 Descending Oakland Center
11:12AM 36.6878 -121.2897 327° Northwest 253 291 13,200 -1,380 Descending Oakland Center
11:13AM 36.7425 -121.3311 329° Northwest 242 278 11,900 -1,440 Descending Oakland Center
11:14AM 36.7983 -121.3739 328° Northwest 238 274 10,300 -1,620 Descending Oakland Center
11:15AM 36.8517 -121.4119 330° Northwest 228 262 8,600 -1,620 Descending Oakland Center
11:16AM 36.9036 -121.4514 329° Northwest 220 253 7,000 -1,200 Descending Oakland Center
11:17AM 36.9503 -121.4917 325° Northwest 210 242 6,200 -660 Descending Oakland Center
11:18AM 36.9983 -121.5322 326° Northwest 207 238 5,700 -540 Descending Oakland Center
11:19AM 37.0500 -121.5728 328° Northwest 213 245 5,100 -360 Descending Oakland Center
11:20AM 37.0997 -121.5969 339° North 205 236 5,000 -60 Descending Oakland Center
11:21AM 37.1606 -121.6264 339° North 203 234 5,000 -420 Level Oakland Center
11:22AM 37.2033 -121.6789 316° Northwest 208 239 4,200 -1,080 Descending Oakland Center
11:23AM 37.2442 -121.7350 312° West 214 246 2,800 -1,260 Descending Oakland Center
11:24AM 37.2797 -121.7733 319° Northwest 185 213 1,700 -1,200 Descending Oakland Center
11:25AM 37.3156 -121.8022 327° Northwest 166 191 400 -780 Descending Oakland Center
11:26AM 37.3431 -121.8269 324° Northwest 157 181 200 -240 Descending Oakland Center
11:28AM 37.3329 -121.8198 180° South  Level Estimated